Time;durP1;ratioP1;P1;durP2;ratioP2;P2;SDS_P1;SDS_P2;PMS_P1;PMS_P2;Temp;Humidity;BMP_temperature;BMP_pressure;BME280_temperature;BME280_humidity;BME280_pressure;Samples;Min_cycle;Max_cycle;Signal;HPM_P1;HPM_P2
2021/12/12 00:01:12;;;;;;;25.00;9.82;;;;;;;5.04;100.00;101961.53;5075308;28;20024;-76
2021/12/12 00:03:41;;;;;;;26.35;9.88;;;;;;;5.05;100.00;101976.38;5092315;28;20026;-76
2021/12/12 00:06:13;;;;;;;28.25;9.95;;;;;;;5.05;100.00;101964.16;5090435;28;20510;-78
2021/12/12 00:08:40;;;;;;;30.08;10.52;;;;;;;5.06;100.00;101967.63;5089491;28;20056;-78
2021/12/12 00:11:11;;;;;;;31.70;9.68;;;;;;;5.07;100.00;101975.50;5094066;28;20020;-78
2021/12/12 00:13:44;;;;;;;24.80;9.45;;;;;;;5.04;100.00;101957.16;5093859;28;20066;-77
2021/12/12 00:16:10;;;;;;;27.13;9.00;;;;;;;5.06;100.00;101947.53;5089908;28;20048;-78
2021/12/12 00:18:36;;;;;;;25.10;10.32;;;;;;;5.04;100.00;101951.03;5074217;28;20120;-78
2021/12/12 00:21:03;;;;;;;23.25;8.98;;;;;;;5.06;100.00;101942.28;5074081;28;20055;-77
2021/12/12 00:23:29;;;;;;;25.67;8.65;;;;;;;5.08;100.00;101940.50;5080438;28;20027;-78
2021/12/12 00:25:57;;;;;;;25.63;9.57;;;;;;;5.07;100.00;101922.13;5093573;28;20103;-77
2021/12/12 00:28:23;;;;;;;25.15;8.48;;;;;;;5.08;100.00;101935.25;5092567;28;20032;-77
2021/12/12 00:30:51;;;;;;;28.13;9.63;;;;;;;5.09;100.00;101938.75;5094276;28;20107;-78
2021/12/12 00:33:16;;;;;;;22.75;8.95;;;;;;;5.11;100.00;101925.63;5093857;28;20105;-78
2021/12/12 00:35:42;;;;;;;23.40;8.77;;;;;;;5.07;100.00;101924.75;5093773;28;20032;-79
2021/12/12 00:38:15;;;;;;;27.08;8.70;;;;;;;5.08;100.00;101924.75;5081467;28;20028;-78
2021/12/12 00:40:45;;;;;;;27.85;9.35;;;;;;;5.08;100.00;101921.25;5073488;28;20124;-81
2021/12/12 00:43:22;;;;;;;22.92;9.60;;;;;;;5.09;100.00;101930.88;5073409;28;20074;-79
2021/12/12 00:45:49;;;;;;;23.02;8.68;;;;;;;5.08;100.00;101911.63;5088732;28;20032;-78
2021/12/12 00:48:14;;;;;;;21.38;8.73;;;;;;;5.11;100.00;101909.88;5085871;28;20025;-76
2021/12/12 00:50:43;;;;;;;23.85;8.63;;;;;;;5.10;100.00;101914.22;5073574;28;20357;-78
2021/12/12 00:53:11;;;;;;;23.55;8.18;;;;;;;5.14;100.00;101937.00;5073174;28;20039;-78
2021/12/12 00:55:38;;;;;;;28.23;8.18;;;;;;;5.13;100.00;101931.72;5081411;28;20039;-78
2021/12/12 00:58:05;;;;;;;23.27;8.43;;;;;;;5.14;100.00;101925.59;5079765;28;20475;-78
2021/12/12 01:00:36;;;;;;;23.00;9.07;;;;;;;5.17;100.00;101929.09;5077750;28;20106;-78
2021/12/12 01:03:04;;;;;;;18.05;8.00;;;;;;;5.20;100.00;101920.31;5073212;28;20024;-77
2021/12/12 01:05:30;;;;;;;21.33;8.38;;;;;;;5.18;100.00;101919.44;5074758;28;20169;-76
2021/12/12 01:07:57;;;;;;;22.67;8.23;;;;;;;5.19;100.00;101923.81;5090083;28;20494;-76
2021/12/12 01:10:30;;;;;;;23.80;8.40;;;;;;;5.20;100.00;101907.19;5072977;28;20031;-77
2021/12/12 01:12:58;;;;;;;20.33;8.35;;;;;;;5.18;100.00;101906.31;5072610;28;20032;-77
2021/12/12 01:15:42;;;;;;;26.85;8.80;;;;;;;5.20;100.00;101901.94;5072804;28;20024;-78
2021/12/12 01:18:12;;;;;;;22.02;8.82;;;;;;;5.21;100.00;101909.81;5081739;28;20033;-77
2021/12/12 01:20:51;;;;;;;22.80;8.38;;;;;;;5.21;100.00;101909.81;5093118;28;20140;-77
2021/12/12 01:23:40;;;;;;;26.80;8.20;;;;;;;5.22;100.00;101889.69;5093189;28;20024;-76
2021/12/12 01:26:08;;;;;;;21.00;8.25;;;;;;;5.21;100.00;101898.44;5092963;28;20102;-77
2021/12/12 01:28:36;;;;;;;23.35;7.72;;;;;;;5.26;100.00;101920.28;5092032;28;21778;-77
2021/12/12 01:31:07;;;;;;;20.60;6.88;;;;;;;5.28;100.00;101905.41;5092983;28;20032;-77
2021/12/12 01:33:35;;;;;;;19.13;7.20;;;;;;;5.27;100.00;101903.66;5092887;28;20086;-76
2021/12/12 01:36:13;;;;;;;22.15;7.75;;;;;;;5.26;100.00;101909.78;5093027;28;20028;-79
2021/12/12 01:41:17;;;;;;;16.15;7.72;;;;;;;5.26;100.00;101909.78;5092541;28;20043;-78
2021/12/12 01:43:46;;;;;;;20.02;8.77;;;;;;;5.27;100.00;101910.66;5092606;28;20031;-77
2021/12/12 01:46:21;;;;;;;20.75;9.00;;;;;;;5.25;100.00;101914.16;5092971;28;20024;-73
2021/12/12 01:48:53;;;;;;;23.27;8.27;;;;;;;5.25;100.00;101905.41;5092361;28;20036;-75
2021/12/12 01:51:21;;;;;;;19.52;9.25;;;;;;;5.25;100.00;101908.03;5092293;28;20056;-76
2021/12/12 01:53:49;;;;;;;22.60;8.57;;;;;;;5.25;100.00;101900.16;5092431;28;20059;-76
2021/12/12 01:56:49;;;;;;;22.05;9.32;;;;;;;5.24;100.00;101890.53;5092381;28;20050;-76
2021/12/12 01:59:15;;;;;;;17.58;8.48;;;;;;;5.26;100.00;101899.28;5092340;28;20111;-80
2021/12/12 02:01:46;;;;;;;23.40;9.48;;;;;;;5.25;100.00;101897.53;5092294;28;20036;-78
2021/12/12 02:04:15;;;;;;;25.63;9.82;;;;;;;5.23;100.00;101881.78;5092714;28;20065;-77
2021/12/12 02:06:46;;;;;;;27.80;9.52;;;;;;;5.24;100.00;101893.16;5092490;28;20031;-78
2021/12/12 02:09:13;;;;;;;23.52;9.15;;;;;;;5.24;100.00;101898.41;5092496;28;20525;-79
2021/12/12 02:11:40;;;;;;;24.58;10.20;;;;;;;5.23;100.00;101887.03;5090767;28;20064;-79
2021/12/12 02:14:12;;;;;;;21.17;9.80;;;;;;;5.28;100.00;101899.25;5092396;28;20376;-80
2021/12/12 02:16:45;;;;;;;23.77;9.50;;;;;;;5.25;100.00;101897.53;5092462;28;20020;-79
2021/12/12 02:19:13;;;;;;;18.05;8.52;;;;;;;5.29;100.00;101899.25;5092709;28;20047;-79
2021/12/12 02:22:01;;;;;;;19.67;9.38;;;;;;;5.27;100.00;101893.16;5091634;28;20472;-79
2021/12/12 02:35:25;;;;;;;18.85;8.95;;;;;;;5.38;100.00;101893.06;5040311;28;19924;-78
2021/12/12 02:37:57;;;;;;;18.35;9.00;;;;;;;5.38;100.00;101887.81;5049842;28;20094;-79
2021/12/12 02:40:28;;;;;;;19.77;9.68;;;;;;;5.34;100.00;101881.72;5034605;28;20148;-79
2021/12/12 02:42:55;;;;;;;22.95;10.32;;;;;;;5.36;100.00;101881.72;5043119;28;20037;-79
2021/12/12 02:45:23;;;;;;;20.33;10.35;;;;;;;5.36;100.00;101892.22;5049687;28;20138;-79
2021/12/12 02:47:57;;;;;;;19.85;10.45;;;;;;;5.39;100.00;101884.31;5036422;28;20025;-78
2021/12/12 02:50:29;;;;;;;25.58;12.05;;;;;;;5.37;100.00;101881.72;5010082;28;20030;-78
2021/12/12 02:53:00;;;;;;;26.40;12.25;;;;;;;5.37;100.00;101883.44;5020432;28;20040;-79
2021/12/12 02:55:35;;;;;;;23.98;12.23;;;;;;;5.39;100.00;101893.06;5030021;28;20037;-79
2021/12/12 02:58:03;;;;;;;23.98;11.70;;;;;;;5.39;100.00;101889.56;5029949;28;20045;-79
2021/12/12 03:00:34;;;;;;;24.33;12.70;;;;;;;5.39;100.00;101879.06;5029261;28;20168;-81
2021/12/12 03:03:00;;;;;;;28.13;12.57;;;;;;;5.39;100.00;101879.06;5032475;28;20436;-79
2021/12/12 03:05:31;;;;;;;23.90;13.27;;;;;;;5.38;100.00;101870.31;5089364;28;20177;-77
2021/12/12 03:07:56;;;;;;;22.90;13.43;;;;;;;5.38;100.00;101880.84;5093513;28;20035;-78
2021/12/12 03:10:28;;;;;;;31.65;14.50;;;;;;;5.40;100.00;101879.03;5095136;28;20396;-78
2021/12/12 03:12:54;;;;;;;28.50;12.95;;;;;;;5.46;100.00;101870.28;5095309;28;20032;-79
2021/12/12 03:15:28;;;;;;;29.15;14.13;;;;;;;5.49;100.00;101882.50;5094793;28;20034;-77
2021/12/12 03:17:57;;;;;;;26.20;13.02;;;;;;;5.50;100.00;101877.25;5094790;28;20071;-78
2021/12/12 03:20:31;;;;;;;29.05;14.20;;;;;;;5.53;100.00;101869.31;5095187;28;20073;-79
2021/12/12 03:23:04;;;;;;;27.98;14.57;;;;;;;5.54;100.00;101867.59;5077115;28;20408;-78
2021/12/12 03:25:33;;;;;;;26.70;13.98;;;;;;;5.58;100.00;101862.28;5095330;28;20024;-77
2021/12/12 03:27:59;;;;;;;31.45;15.23;;;;;;;5.64;100.00;101850.88;5094990;28;20032;-77
2021/12/12 03:30:26;;;;;;;32.15;15.50;;;;;;;5.67;100.00;101857.84;5094990;28;20024;-78
2021/12/12 03:32:52;;;;;;;32.70;15.40;;;;;;;5.73;100.00;101856.03;5094763;28;20059;-78
2021/12/12 03:35:17;;;;;;;29.50;14.90;;;;;;;5.79;100.00;101856.88;5095128;28;20032;-74
2021/12/12 03:37:43;;;;;;;30.15;15.82;;;;;;;5.80;100.00;101853.38;5095191;28;20035;-78
2021/12/12 03:40:35;;;;;;;29.95;15.57;;;;;;;5.81;100.00;101860.38;5094775;28;20036;-78
2021/12/12 03:43:01;;;;;;;26.45;15.15;;;;;;;5.84;100.00;101868.22;5032635;28;20041;-79
2021/12/12 03:45:28;;;;;;;29.55;15.20;;;;;;;5.89;100.00;101866.41;5033983;28;20042;-78
2021/12/12 03:48:08;;;;;;;26.45;15.93;;;;;;;5.88;100.00;101872.56;5052545;28;20492;-77
2021/12/12 03:50:36;;;;;;;31.08;15.75;;;;;;;5.91;100.00;101870.78;5037093;28;20030;-77
2021/12/12 03:53:03;;;;;;;29.42;15.93;;;;;;;5.95;100.00;101869.00;5032478;28;20557;-78
2021/12/12 03:55:29;;;;;;;30.00;17.42;;;;;;;5.97;100.00;101880.38;5032641;28;20033;-78
2021/12/12 03:57:57;;;;;;;31.50;17.83;;;;;;;6.01;100.00;101883.88;5049161;28;20094;-77
2021/12/12 04:00:30;;;;;;;38.45;19.35;;;;;;;6.06;100.00;101882.06;5043184;28;20041;-78
2021/12/12 04:02:57;;;;;;;32.83;17.98;;;;;;;6.07;100.00;101876.81;5032472;28;20092;-77
2021/12/12 04:05:22;;;;;;;33.97;18.52;;;;;;;6.12;100.00;101875.91;5052354;28;20032;-78
2021/12/12 04:07:49;;;;;;;38.05;19.17;;;;;;;6.12;100.00;101882.00;5039458;28;20046;-75
2021/12/12 04:10:20;;;;;;;33.88;18.48;;;;;;;6.15;100.00;101878.47;5031951;28;20033;-77
2021/12/12 04:12:45;;;;;;;40.55;19.83;;;;;;;6.16;100.00;101885.50;5032002;28;20041;-76
2021/12/12 04:15:11;;;;;;;37.40;19.13;;;;;;;6.19;100.00;101872.31;5033100;28;20041;-77
2021/12/12 04:17:36;;;;;;;37.05;20.45;;;;;;;6.21;100.00;101870.53;5031714;28;20033;-77
2021/12/12 04:20:11;;;;;;;41.42;19.60;;;;;;;6.19;100.00;101873.19;5054221;28;20488;-76
2021/12/12 04:22:37;;;;;;;37.58;19.15;;;;;;;6.23;100.00;101868.78;5093314;28;20042;-77
2021/12/12 04:25:04;;;;;;;38.38;20.33;;;;;;;6.26;100.00;101878.41;5093741;28;20532;-77
2021/12/12 04:27:30;;;;;;;41.03;19.67;;;;;;;6.26;100.00;101865.25;5093861;28;20034;-77
2021/12/12 04:29:55;;;;;;;38.25;20.40;;;;;;;6.26;100.00;101873.13;5094277;28;20106;-78
2021/12/12 04:32:27;;;;;;;39.42;20.13;;;;;;;6.28;100.00;101877.50;5093245;28;20048;-78
2021/12/12 04:34:57;;;;;;;36.63;19.48;;;;;;;6.30;100.00;101880.09;5093633;28;20020;-77
2021/12/12 04:37:25;;;;;;;39.22;20.70;;;;;;;6.29;100.00;101879.25;5093537;28;20055;-77
2021/12/12 04:39:54;;;;;;;41.85;20.52;;;;;;;6.30;100.00;101867.81;5093996;28;20085;-77
2021/12/12 04:42:27;;;;;;;38.58;21.08;;;;;;;6.33;100.00;101873.06;5093200;28;20532;-77
2021/12/12 04:45:01;;;;;;;43.92;21.20;;;;;;;6.37;100.00;101866.84;5076356;28;20463;-76
2021/12/12 04:50:44;;;;;;;50.72;21.52;;;;;;;6.38;100.00;101879.13;5075845;28;20039;-78
2021/12/12 04:53:22;;;;;;;46.70;21.48;;;;;;;6.40;100.00;101879.97;5087815;28;20036;-77
2021/12/12 04:55:54;;;;;;;46.72;22.02;;;;;;;6.44;100.00;101887.84;5093512;28;20383;-77
2021/12/12 04:58:52;;;;;;;49.90;23.42;;;;;;;6.44;100.00;101885.22;5093227;28;20150;-76
2021/12/12 05:01:31;;;;;;;52.72;23.50;;;;;;;6.42;100.00;101892.25;5093879;28;20043;-77
2021/12/12 05:04:02;;;;;;;48.05;22.95;;;;;;;6.43;100.00;101892.22;5092759;28;20015;-75
2021/12/12 05:06:36;;;;;;;48.20;23.83;;;;;;;6.42;100.00;101897.50;5093461;28;20050;-77
2021/12/12 05:09:10;;;;;;;56.38;24.63;;;;;;;6.42;100.00;101895.75;5092554;28;20503;-75
2021/12/12 05:11:58;;;;;;;52.60;25.20;;;;;;;6.45;100.00;101895.72;5093276;28;20452;-76
2021/12/12 05:14:28;;;;;;;56.15;25.13;;;;;;;6.48;100.00;101903.56;5092830;28;20426;-76
2021/12/12 05:17:35;;;;;;;56.90;26.35;;;;;;;6.53;100.00;101893.91;5092064;28;20043;-77
2021/12/12 05:20:04;;;;;;;61.40;25.30;;;;;;;6.54;100.00;101902.66;5087085;28;20131;-77
2021/12/12 05:22:46;;;;;;;60.15;25.75;;;;;;;6.54;100.00;101898.25;5093356;28;20115;-77
2021/12/12 05:25:18;;;;;;;67.28;27.10;;;;;;;6.55;100.00;101900.00;5092745;28;20024;-77
2021/12/12 05:27:44;;;;;;;62.50;25.80;;;;;;;6.56;100.00;101908.78;5093073;28;20119;-76
2021/12/12 05:30:16;;;;;;;61.92;26.42;;;;;;;6.61;100.00;101908.72;5091877;28;20444;-75
2021/12/12 05:32:43;;;;;;;61.72;27.08;;;;;;;6.65;100.00;101913.94;5092471;28;20079;-75
2021/12/12 05:35:12;;;;;;;67.65;27.70;;;;;;;6.62;100.00;101915.72;5092626;28;20040;-77
2021/12/12 05:37:38;;;;;;;67.60;28.13;;;;;;;6.65;100.00;101911.31;5092838;28;20039;-75
2021/12/12 05:40:08;;;;;;;74.55;28.27;;;;;;;6.67;100.00;101903.38;5092492;28;20024;-77
2021/12/12 05:42:35;;;;;;;73.82;29.30;;;;;;;6.70;100.00;101911.22;5092787;28;20095;-76
2021/12/12 05:45:02;;;;;;;69.63;29.42;;;;;;;6.72;100.00;101907.69;5092453;28;20081;-76
2021/12/12 05:47:28;;;;;;;70.45;28.98;;;;;;;6.75;100.00;101911.19;5092436;28;20040;-73
2021/12/12 05:49:53;;;;;;;65.68;28.73;;;;;;;6.76;100.00;101911.16;5092227;28;20023;-76
2021/12/12 05:52:21;;;;;;;69.07;30.05;;;;;;;6.77;100.00;101915.53;5092772;28;20028;-76
2021/12/12 05:54:48;;;;;;;74.68;29.77;;;;;;;6.79;100.00;101912.88;5092524;28;20099;-77
2021/12/12 05:57:16;;;;;;;64.05;27.95;;;;;;;6.80;100.00;101919.91;5092784;28;20016;-76
2021/12/12 05:59:43;;;;;;;69.88;29.63;;;;;;;6.77;100.00;101923.44;5092749;28;20032;-76
2021/12/12 06:02:09;;;;;;;80.30;32.83;;;;;;;6.78;100.00;101930.47;5091662;28;20032;-76
2021/12/12 06:04:36;;;;;;;73.57;30.52;;;;;;;6.81;100.00;101925.16;5073882;28;20399;-77
2021/12/12 06:07:06;;;;;;;76.32;29.38;;;;;;;6.83;100.00;101926.00;5092096;28;20450;-77
2021/12/12 06:09:33;;;;;;;75.53;30.40;;;;;;;6.85;100.00;101923.34;5092570;28;20652;-77
2021/12/12 06:12:01;;;;;;;72.20;29.80;;;;;;;6.86;100.00;101927.72;5092156;28;20029;-77
2021/12/12 06:14:29;;;;;;;74.72;29.00;;;;;;;6.92;100.00;101932.03;5092605;28;20028;-76
2021/12/12 06:16:55;;;;;;;72.50;30.30;;;;;;;6.95;100.00;101939.91;5092082;28;20051;-76
2021/12/12 06:19:23;;;;;;;68.38;29.65;;;;;;;7.01;100.00;101932.81;5092089;28;20484;-76
2021/12/12 06:21:55;;;;;;;76.22;29.05;;;;;;;7.03;100.00;101933.69;5092204;28;20055;-76
2021/12/12 06:24:22;;;;;;;;;;;;;;;7.05;100.00;101925.75;5093002;28;20025;-75
2021/12/12 06:26:47;;;;;;;76.55;29.75;;;;;;;7.05;100.00;101936.28;5092330;28;19923;-76
2021/12/12 06:29:13;;;;;;;82.40;30.02;;;;;;;7.02;100.00;101939.84;5092303;28;20024;-76
2021/12/12 06:31:42;;;;;;;75.55;29.02;;;;;;;7.06;100.00;101940.66;5074469;28;20380;-77
2021/12/12 06:34:08;;;;;;;83.65;29.63;;;;;;;7.08;100.00;101943.28;5074234;28;20044;-77
2021/12/12 06:36:34;;;;;;;69.05;28.83;;;;;;;7.10;100.00;101938.84;5074322;28;20028;-76
2021/12/12 06:39:03;;;;;;;69.13;27.52;;;;;;;7.12;100.00;101943.19;5092276;28;20537;-77
2021/12/12 06:41:29;;;;;;;72.57;29.52;;;;;;;7.15;100.00;101945.81;5093295;28;20028;-75
2021/12/12 06:43:56;;;;;;;81.45;30.77;;;;;;;7.17;100.00;101944.03;5095653;28;20073;-77
2021/12/12 06:46:23;;;;;;;80.25;30.85;;;;;;;7.18;100.00;101942.25;5095711;28;20024;-77
2021/12/12 06:48:49;;;;;;;77.13;29.02;;;;;;;7.22;100.00;101946.59;5095965;28;20024;-77
2021/12/12 06:51:14;;;;;;;84.95;30.13;;;;;;;7.21;100.00;101947.47;5095261;28;20406;-74
2021/12/12 06:53:45;;;;;;;80.05;28.02;;;;;;;7.23;100.00;101948.34;5087535;28;20031;-76
2021/12/12 06:56:15;;;;;;;79.35;28.67;;;;;;;7.26;100.00;101950.06;5095957;28;20031;-77
2021/12/12 06:58:41;;;;;;;79.97;28.63;;;;;;;7.26;100.00;101948.28;5095394;28;20504;-77
2021/12/12 07:01:15;;;;;;;83.72;29.50;;;;;;;7.27;100.00;101957.94;5096106;28;20024;-77
2021/12/12 07:03:40;;;;;;;88.20;30.50;;;;;;;7.31;100.00;101957.00;5095665;28;20427;-77
2021/12/12 07:06:06;;;;;;;74.20;28.95;;;;;;;7.27;100.00;101959.72;5097735;28;20028;-76
2021/12/12 07:08:32;;;;;;;82.28;28.98;;;;;;;7.28;100.00;101954.44;5105633;28;20032;-76
2021/12/12 07:10:58;;;;;;;84.15;29.58;;;;;;;7.32;100.00;101961.38;5098640;28;20547;-77
2021/12/12 07:13:24;;;;;;;93.60;29.17;;;;;;;7.31;100.00;101964.91;5106290;28;20106;-77
2021/12/12 07:15:54;;;;;;;81.70;29.13;;;;;;;7.33;100.00;101963.13;5095492;28;20380;-77
2021/12/12 07:18:22;;;;;;;88.28;28.75;;;;;;;7.34;100.00;101967.53;5095133;28;20113;-77
2021/12/12 07:20:50;;;;;;;81.40;28.63;;;;;;;7.36;100.00;101967.50;5095227;28;20162;-77
2021/12/12 07:23:17;;;;;;;95.03;29.92;;;;;;;7.40;100.00;101970.97;5095067;28;20531;-77
2021/12/12 07:25:44;;;;;;;81.65;27.25;;;;;;;7.41;100.00;101973.56;5095515;28;20065;-76
2021/12/12 07:28:11;;;;;;;82.95;27.60;;;;;;;7.47;100.00;101978.78;5094941;28;20105;-77
2021/12/12 07:30:37;;;;;;;82.05;28.40;;;;;;;7.49;100.00;101976.09;5075199;28;20020;-76
2021/12/12 07:33:04;;;;;;;77.75;28.05;;;;;;;7.51;100.00;101976.97;5074796;28;20131;-74
2021/12/12 07:35:32;;;;;;;82.97;28.38;;;;;;;7.56;100.00;101977.78;5074841;28;20029;-77
2021/12/12 07:37:59;;;;;;;82.88;28.00;;;;;;;7.53;100.00;101977.81;5088816;28;20020;-76
2021/12/12 07:40:25;;;;;;;83.53;29.00;;;;;;;7.55;100.00;101984.78;5093592;28;20040;-76
2021/12/12 07:42:51;;;;;;;78.55;28.83;;;;;;;7.57;100.00;101976.88;5094083;28;20021;-76
2021/12/12 07:45:20;;;;;;;86.22;29.42;;;;;;;7.60;100.00;101978.63;5094215;28;20483;-78
2021/12/12 07:47:46;;;;;;;93.60;30.67;;;;;;;7.61;100.00;101986.50;5104766;28;20036;-76
2021/12/12 07:50:16;;;;;;;90.63;29.92;;;;;;;7.65;100.00;101982.91;5090456;28;20016;-78
2021/12/12 07:52:44;;;;;;;89.25;28.58;;;;;;;7.70;100.00;101981.09;5094228;28;20032;-79
2021/12/12 07:55:10;;;;;;;85.97;30.73;;;;;;;7.70;100.00;101993.41;5069372;28;20039;-77
2021/12/12 07:57:35;;;;;;;83.22;27.52;;;;;;;7.72;100.00;101994.22;5084868;28;20036;-79
2021/12/12 08:00:08;;;;;;;89.95;28.92;;;;;;;7.73;100.00;101992.50;5095189;28;20074;-79
2021/12/12 08:02:34;;;;;;;92.97;28.08;;;;;;;7.73;100.00;101997.75;5093247;28;20059;-79
2021/12/12 08:04:59;;;;;;;80.32;27.95;;;;;;;7.71;100.00;102003.91;5082801;28;20071;-80
2021/12/12 08:07:25;;;;;;;101.45;29.70;;;;;;;7.74;100.00;102004.75;5094533;28;20032;-80
2021/12/12 08:09:51;;;;;;;87.57;28.27;;;;;;;7.79;100.00;102002.94;5094769;28;20062;-78
2021/12/12 08:12:19;;;;;;;87.63;28.95;;;;;;;7.82;100.00;102008.16;5090116;28;20032;-73
2021/12/12 08:14:46;;;;;;;80.97;28.50;;;;;;;7.84;100.00;102011.66;5094017;28;20023;-81
2021/12/12 08:17:13;;;;;;;86.55;28.00;;;;;;;7.87;100.00;102012.47;5094007;28;20013;-82
2021/12/12 08:19:39;;;;;;;83.18;27.00;;;;;;;7.87;100.00;102017.75;5093784;28;20016;-81
2021/12/12 08:22:08;;;;;;;93.18;27.08;;;;;;;7.87;100.00;102022.16;5093944;28;20181;-79
2021/12/12 08:24:37;;;;;;;75.60;26.33;;;;;;;7.93;100.00;102032.63;5094324;28;20031;-77
2021/12/12 08:27:04;;;;;;;82.80;25.90;;;;;;;7.92;100.00;102030.00;5094250;28;20039;-76
2021/12/12 08:29:31;;;;;;;87.95;27.45;;;;;;;7.96;100.00;102029.94;5094623;28;20103;-80
2021/12/12 08:31:57;;;;;;;80.00;25.27;;;;;;;7.97;100.00;102042.22;5093531;28;20391;-81
2021/12/12 08:34:25;;;;;;;74.65;25.00;;;;;;;7.98;100.00;102035.19;5094011;28;20054;-79
2021/12/12 08:36:53;;;;;;;77.28;25.90;;;;;;;8.00;100.00;102028.13;5086414;28;20059;-81
2021/12/12 08:39:18;;;;;;;81.80;26.40;;;;;;;7.99;100.00;102042.19;5093415;28;20067;-77
2021/12/12 08:41:47;;;;;;;71.10;25.60;;;;;;;8.00;100.00;102041.31;5093469;28;20487;-80
2021/12/12 08:44:13;;;;;;;69.28;24.60;;;;;;;7.99;100.00;102045.72;5076853;28;20503;-81
2021/12/12 08:46:42;;;;;;;70.03;25.08;;;;;;;8.02;100.00;102043.03;5097954;28;20031;-80
2021/12/12 08:49:09;;;;;;;75.85;25.85;;;;;;;8.02;100.00;102052.72;5097366;28;20023;-80
2021/12/12 08:51:38;;;;;;;64.72;23.65;;;;;;;8.08;100.00;102055.28;5088118;28;20047;-76
2021/12/12 08:54:13;;;;;;;60.75;23.77;;;;;;;8.10;100.00;102052.63;5088738;28;20494;-79
2021/12/12 08:56:44;;;;;;;61.92;24.33;;;;;;;8.13;100.00;102063.09;5090416;28;20024;-80
2021/12/12 08:59:14;;;;;;;71.40;24.10;;;;;;;8.14;100.00;102059.56;5092004;28;20027;-80
2021/12/12 09:01:41;;;;;;;63.17;23.95;;;;;;;8.16;100.00;102060.44;5092737;28;20028;-80
2021/12/12 09:04:08;;;;;;;68.03;23.90;;;;;;;8.15;100.00;102056.06;5093127;28;20036;-81
2021/12/12 09:06:41;;;;;;;56.17;23.55;;;;;;;8.20;100.00;102064.75;5093482;28;20035;-82
2021/12/12 09:09:14;;;;;;;55.72;21.60;;;;;;;8.24;100.00;102060.31;5093166;28;20024;-79
2021/12/12 09:11:46;;;;;;;56.30;21.50;;;;;;;8.27;100.00;102066.41;5088323;28;20020;-79
2021/12/12 09:14:21;;;;;;;50.60;20.98;;;;;;;8.30;100.00;102055.81;5092050;28;20063;-81
2021/12/12 09:17:04;;;;;;;43.67;18.90;;;;;;;8.31;100.00;102078.69;5092305;28;20468;-77
2021/12/12 09:19:38;;;;;;;40.25;18.17;;;;;;;8.35;100.00;102076.84;5093321;28;20032;-79
2021/12/12 09:22:11;;;;;;;38.30;17.15;;;;;;;8.37;100.00;102083.81;5093146;28;20024;-79
2021/12/12 09:24:51;;;;;;;36.25;16.45;;;;;;;8.39;100.00;102083.84;5092958;28;20028;-81
2021/12/12 09:27:44;;;;;;;34.53;16.00;;;;;;;8.43;100.00;102084.66;5092684;28;20036;-76
2021/12/12 09:30:13;;;;;;;36.38;15.75;;;;;;;8.48;100.00;102081.06;5072331;28;20131;-80
2021/12/12 09:33:09;;;;;;;34.47;15.00;;;;;;;8.50;100.00;102091.59;5082864;28;20138;-82
2021/12/12 09:35:50;;;;;;;31.23;14.43;;;;;;;8.52;100.00;102089.81;5035261;28;20095;-79
2021/12/12 09:38:39;;;;;;;31.40;14.47;;;;;;;8.52;100.00;102100.38;5041077;28;20037;-76
2021/12/12 09:41:45;;;;;;;26.88;14.07;;;;;;;8.52;100.00;102095.97;5036574;28;20291;-79
2021/12/12 09:44:38;;;;;;;30.75;14.77;;;;;;;8.55;100.00;102097.69;5041043;28;20029;-78
2021/12/12 09:47:35;;;;;;;27.83;13.95;;;;;;;8.56;100.00;102102.06;5039160;28;20045;-81
2021/12/12 09:53:28;;;;;;;;;;;;;;;8.52;100.00;102098.59;5048992;28;20109;-78
2021/12/12 09:56:23;;;;;;;27.95;13.43;;;;;;;8.50;100.00;102102.16;5037802;28;19925;-79
2021/12/12 09:59:26;;;;;;;31.27;14.63;;;;;;;8.53;100.00;102099.50;5041673;28;20049;-79
2021/12/12 10:02:04;;;;;;;27.15;13.90;;;;;;;8.57;100.00;102090.63;5030731;28;20038;-79
2021/12/12 10:04:41;;;;;;;25.17;13.27;;;;;;;8.59;100.00;102101.16;5031481;28;20088;-78
2021/12/12 10:07:16;;;;;;;29.65;14.27;;;;;;;8.61;100.00;102097.59;5043188;28;20148;-78
2021/12/12 10:09:47;;;;;;;27.73;13.70;;;;;;;8.65;100.00;102108.97;5045807;28;20028;-79
2021/12/12 10:12:17;;;;;;;26.08;14.00;;;;;;;8.64;100.00;102108.06;5055681;28;20438;-79
2021/12/12 10:14:49;;;;;;;25.27;13.95;;;;;;;8.63;100.00;102100.19;5092351;28;20541;-79
2021/12/12 10:17:40;;;;;;;26.70;14.00;;;;;;;8.65;100.00;102107.19;5094886;28;20020;-77
2021/12/12 10:20:09;;;;;;;29.58;14.07;;;;;;;8.67;100.00;102099.22;5096805;28;20028;-76
2021/12/12 10:23:00;;;;;;;25.27;13.80;;;;;;;8.68;100.00;102106.25;5095730;28;20046;-77
2021/12/12 10:25:53;;;;;;;24.80;13.55;;;;;;;8.69;100.00;102102.72;5095365;28;20028;-77
2021/12/12 10:28:27;;;;;;;26.48;14.30;;;;;;;8.66;100.00;102110.72;5096038;28;20039;-79
2021/12/12 10:31:21;;;;;;;26.95;13.88;;;;;;;8.67;100.00;102110.69;5088374;28;20480;-79
2021/12/12 10:33:59;;;;;;;31.85;14.65;;;;;;;8.69;100.00;102113.28;5096002;28;20056;-75
2021/12/12 10:36:54;;;;;;;28.17;13.90;;;;;;;8.72;100.00;102109.72;5095701;28;20038;-76
2021/12/12 10:39:28;;;;;;;25.33;12.80;;;;;;;8.72;100.00;102102.69;5095454;28;20036;-77
2021/12/12 10:42:06;;;;;;;24.48;13.00;;;;;;;8.76;100.00;102107.03;5095001;28;20033;-76
2021/12/12 10:44:37;;;;;;;28.70;12.57;;;;;;;8.82;100.00;102117.50;5096525;28;20032;-76
2021/12/12 10:47:05;;;;;;;24.13;11.90;;;;;;;8.86;100.00;102097.16;5100145;28;20036;-80
2021/12/12 10:49:52;;;;;;;22.63;12.00;;;;;;;8.89;100.00;102114.72;5068341;28;20024;-78
2021/12/12 10:52:31;;;;;;;26.23;12.63;;;;;;;8.94;100.00;102107.59;5089790;28;20097;-78
2021/12/12 10:55:04;;;;;;;23.38;11.32;;;;;;;8.96;100.00;102106.66;5094973;28;20028;-77
2021/12/12 10:57:34;;;;;;;23.08;11.60;;;;;;;8.98;100.00;102104.88;5095453;28;20358;-79
2021/12/12 11:00:22;;;;;;;22.63;11.02;;;;;;;9.00;100.00;102102.19;5088805;28;20020;-81
2021/12/12 11:02:55;;;;;;;21.60;10.82;;;;;;;9.04;100.00;102111.84;5075837;28;20440;-80
2021/12/12 11:05:30;;;;;;;21.20;10.82;;;;;;;9.02;100.00;102103.06;5084218;28;20028;-80
2021/12/12 11:08:08;;;;;;;19.85;9.40;;;;;;;9.06;100.00;102104.72;5093744;28;20059;-80
2021/12/12 11:10:37;;;;;;;18.75;10.52;;;;;;;9.09;100.00;102112.63;5094992;28;20078;-79
2021/12/12 11:13:17;;;;;;;18.35;9.95;;;;;;;9.11;100.00;102110.81;5095276;28;20059;-79
2021/12/12 11:15:55;;;;;;;17.77;9.48;;;;;;;9.16;100.00;102108.09;5095136;28;20418;-80
2021/12/12 11:18:39;;;;;;;19.08;9.52;;;;;;;9.18;100.00;102119.47;5095159;28;20016;-80
2021/12/12 11:21:20;;;;;;;14.40;8.13;;;;;;;9.20;100.00;102117.69;5094987;28;20483;-79
2021/12/12 11:24:29;;;;;;;15.50;8.35;;;;;;;9.18;100.00;102111.56;5086326;28;20090;-79
2021/12/12 11:27:00;;;;;;;15.43;7.97;;;;;;;9.20;100.00;102119.47;5015246;28;20083;-74
2021/12/12 11:29:36;;;;;;;13.77;7.90;;;;;;;9.18;100.00;102115.09;5011476;28;20121;-80
2021/12/12 11:32:27;;;;;;;13.48;7.25;;;;;;;9.22;100.00;102128.22;5023405;28;20080;-79
2021/12/12 11:34:56;;;;;;;13.60;7.75;;;;;;;9.26;100.00;102119.34;5000105;28;20057;-76
2021/12/12 11:38:02;;;;;;;13.32;7.72;;;;;;;9.32;100.00;102130.69;5016766;28;20100;-75
2021/12/12 11:40:43;;;;;;;12.38;6.90;;;;;;;9.33;100.00;102126.25;5012874;28;20034;-78
2021/12/12 11:43:25;;;;;;;11.80;6.35;;;;;;;9.34;100.00;102128.88;4997751;28;20037;-78
2021/12/12 11:46:04;;;;;;;10.30;6.30;;;;;;;9.33;100.00;102129.81;5016879;28;20052;-78
2021/12/12 11:48:32;;;;;;;11.82;7.13;;;;;;;9.38;100.00;102136.75;5016190;28;20041;-79
2021/12/12 11:51:03;;;;;;;11.18;6.45;;;;;;;9.38;100.00;102136.75;5013741;28;20057;-79
2021/12/12 11:53:56;;;;;;;13.30;6.70;;;;;;;9.41;100.00;102128.75;5012661;28;20085;-78